createdAt,value
2023-01-01T00:01:07.659Z,16.60
2023-01-01T00:03:09.428Z,16.61
2023-01-01T00:05:11.078Z,16.58
2023-01-01T00:07:14.597Z,16.61
2023-01-01T00:09:34.887Z,16.63
2023-01-01T00:11:41.540Z,16.62
2023-01-01T00:13:44.582Z,16.64
2023-01-01T00:15:46.319Z,16.69
2023-01-01T00:17:48.080Z,16.68
2023-01-01T00:19:49.797Z,16.67
2023-01-01T00:21:53.736Z,16.68
2023-01-01T00:23:55.996Z,16.70
2023-01-01T00:25:59.278Z,16.68
2023-01-01T00:28:04.193Z,16.65
2023-01-01T00:30:06.686Z,16.66
2023-01-01T00:32:11.557Z,16.67
2023-01-01T00:34:13.794Z,16.65
2023-01-01T00:36:16.738Z,16.63
2023-01-01T00:38:18.298Z,16.65
2023-01-01T00:40:20.345Z,16.61
2023-01-01T00:42:21.966Z,16.59
2023-01-01T00:44:23.625Z,16.61
2023-01-01T00:46:25.188Z,16.64
2023-01-01T00:48:26.826Z,16.63
2023-01-01T00:50:28.788Z,16.62
2023-01-01T00:52:30.363Z,16.59
2023-01-01T00:54:31.980Z,16.59
2023-01-01T00:56:33.673Z,16.58
2023-01-01T00:58:35.628Z,16.61
2023-01-01T01:00:38.306Z,16.59
2023-01-01T01:02:40.118Z,16.55
2023-01-01T01:04:41.940Z,16.49
2023-01-01T01:06:45.218Z,16.48
2023-01-01T01:08:50.239Z,16.52
2023-01-01T01:10:55.657Z,16.48
2023-01-01T01:12:57.279Z,16.46
2023-01-01T01:15:04.192Z,16.43
2023-01-01T01:17:05.906Z,16.40
2023-01-01T01:19:07.544Z,16.40
2023-01-01T01:21:15.206Z,16.36
2023-01-01T01:23:16.938Z,16.36
2023-01-01T01:25:18.588Z,16.33
2023-01-01T01:27:20.458Z,16.30
2023-01-01T01:29:22.130Z,16.29
2023-01-01T01:31:28.766Z,16.26
2023-01-01T01:33:33.202Z,16.23
2023-01-01T01:35:36.123Z,16.20
2023-01-01T01:37:37.589Z,16.18
2023-01-01T01:39:42.552Z,16.15
2023-01-01T01:41:44.031Z,16.11
2023-01-01T01:44:07.215Z,16.08
2023-01-01T01:46:22.574Z,16.04
2023-01-01T01:48:25.246Z,16.04
2023-01-01T01:50:36.119Z,16.01
2023-01-01T01:52:47.324Z,16.00
2023-01-01T01:54:49.296Z,15.97
2023-01-01T01:56:53.807Z,15.94
2023-01-01T01:58:55.705Z,15.91
2023-01-01T02:00:58.205Z,15.88
2023-01-01T02:03:05.576Z,15.85
2023-01-01T02:05:07.799Z,15.82
2023-01-01T02:07:14.038Z,15.79
2023-01-01T02:09:20.226Z,15.77
2023-01-01T02:11:22.295Z,15.74
2023-01-01T02:13:24.121Z,15.71
2023-01-01T02:15:30.835Z,15.68
2023-01-01T02:17:50.070Z,15.64
2023-01-01T02:20:32.047Z,15.59
2023-01-01T02:22:36.303Z,15.56
2023-01-01T02:25:00.571Z,15.53
2023-01-01T02:27:08.057Z,15.48
2023-01-01T02:29:47.848Z,15.44
2023-01-01T02:31:59.311Z,15.40
2023-01-01T02:34:09.311Z,15.37
2023-01-01T02:36:13.369Z,15.33
2023-01-01T02:38:24.103Z,15.29
2023-01-01T02:40:27.979Z,15.26
2023-01-01T02:42:30.574Z,15.24
2023-01-01T02:44:39.632Z,15.19
2023-01-01T02:46:42.647Z,15.16
2023-01-01T02:48:52.311Z,15.11
2023-01-01T02:51:02.276Z,15.07
2023-01-01T02:53:38.693Z,15.03
2023-01-01T02:56:02.437Z,14.97
2023-01-01T02:58:51.480Z,14.92
2023-01-01T03:01:01.581Z,14.87
2023-01-01T03:03:33.022Z,14.84
2023-01-01T03:06:19.483Z,14.77
2023-01-01T03:08:44.660Z,14.73
2023-01-01T03:11:18.706Z,14.69
2023-01-01T03:13:40.724Z,14.66
2023-01-01T03:15:50.876Z,14.61
2023-01-01T03:18:26.045Z,14.58
2023-01-01T03:20:33.601Z,14.55
2023-01-01T03:24:56.395Z,14.48
2023-01-01T03:27:03.305Z,14.46
2023-01-01T03:29:06.295Z,14.44
2023-01-01T03:31:08.910Z,14.40
2023-01-01T03:33:18.758Z,14.38
2023-01-01T03:35:24.166Z,14.36
2023-01-01T03:37:28.828Z,14.34
2023-01-01T03:39:36.916Z,14.30
2023-01-01T03:41:50.000Z,14.28
2023-01-01T03:44:15.648Z,14.23
2023-01-01T03:46:21.966Z,14.22
2023-01-01T03:48:23.624Z,14.18
2023-01-01T03:50:36.151Z,14.16
2023-01-01T03:52:49.443Z,14.13
2023-01-01T03:55:00.697Z,14.13
2023-01-01T03:57:48.635Z,14.09
2023-01-01T04:00:16.556Z,14.06
2023-01-01T04:02:24.497Z,14.02
2023-01-01T04:04:26.950Z,14.00
2023-01-01T04:06:28.833Z,13.96
2023-01-01T04:08:35.540Z,13.94
2023-01-01T04:10:47.438Z,13.92
2023-01-01T04:12:55.823Z,13.89
2023-01-01T04:14:57.280Z,13.86
2023-01-01T04:16:59.969Z,13.85
2023-01-01T04:19:01.424Z,13.83
2023-01-01T04:21:03.178Z,13.81
2023-01-01T04:23:05.668Z,13.78
2023-01-01T04:25:08.559Z,13.75
2023-01-01T04:27:10.179Z,13.72
2023-01-01T04:29:11.613Z,13.70
2023-01-01T04:31:16.338Z,13.67
2023-01-01T04:33:21.847Z,13.64
2023-01-01T04:35:26.254Z,13.61
2023-01-01T04:37:28.000Z,13.59
2023-01-01T04:39:29.797Z,13.56
2023-01-01T04:41:31.852Z,13.53
2023-01-01T04:43:34.272Z,13.50
2023-01-01T04:45:38.363Z,13.47
2023-01-01T04:47:40.023Z,13.43
2023-01-01T04:49:41.635Z,13.40
2023-01-01T04:51:46.541Z,13.35
2023-01-01T04:53:48.535Z,13.33
2023-01-01T04:55:50.686Z,13.30
2023-01-01T04:57:52.361Z,13.28
2023-01-01T04:59:53.895Z,13.25
2023-01-01T05:01:58.664Z,13.23
2023-01-01T05:04:01.486Z,13.20
2023-01-01T05:06:13.748Z,13.15
2023-01-01T05:08:15.265Z,13.15
2023-01-01T05:10:18.847Z,13.11
2023-01-01T05:12:22.831Z,13.10
2023-01-01T05:14:27.982Z,13.09
2023-01-01T05:16:35.768Z,13.06
2023-01-01T05:18:38.341Z,13.04
2023-01-01T05:20:39.973Z,13.02
2023-01-01T05:22:50.474Z,13.00
2023-01-01T05:24:51.988Z,12.96
2023-01-01T05:26:56.880Z,12.94
2023-01-01T05:29:00.337Z,12.93
2023-01-01T05:31:05.736Z,12.88
2023-01-01T05:33:07.612Z,12.86
2023-01-01T05:35:09.369Z,12.85
2023-01-01T05:37:11.053Z,12.83
2023-01-01T05:39:13.122Z,12.81
2023-01-01T05:41:16.550Z,12.78
2023-01-01T05:43:18.412Z,12.74
2023-01-01T05:45:20.043Z,12.75
2023-01-01T05:47:22.553Z,12.76
2023-01-01T05:49:26.990Z,12.73
2023-01-01T05:53:33.116Z,12.72
2023-01-01T05:55:35.075Z,12.74
2023-01-01T05:57:36.825Z,12.74
2023-01-01T05:59:38.338Z,12.75
2023-01-01T06:01:45.398Z,12.77
2023-01-01T06:03:50.415Z,12.82
2023-01-01T06:05:54.694Z,12.86
2023-01-01T06:07:59.116Z,12.94
2023-01-01T06:10:03.370Z,13.01
2023-01-01T06:12:05.644Z,13.06
2023-01-01T06:14:07.088Z,13.09
2023-01-01T06:16:11.292Z,13.09
2023-01-01T06:18:12.903Z,13.09
2023-01-01T06:20:14.527Z,13.14
2023-01-01T06:22:16.124Z,13.09
2023-01-01T06:24:20.100Z,13.10
2023-01-01T06:26:23.851Z,13.11
2023-01-01T06:28:25.625Z,13.12
2023-01-01T06:30:27.468Z,13.13
2023-01-01T06:32:29.080Z,13.14
2023-01-01T06:34:30.888Z,13.14
2023-01-01T06:36:32.812Z,13.12
2023-01-01T06:38:38.766Z,13.12
2023-01-01T06:40:43.157Z,13.10
2023-01-01T06:42:44.973Z,13.08
2023-01-01T06:44:49.064Z,13.07
2023-01-01T06:46:50.556Z,13.05
2023-01-01T06:49:06.450Z,13.00
2023-01-01T06:51:10.869Z,13.01
2023-01-01T06:53:12.385Z,12.97
2023-01-01T06:55:17.940Z,12.96
2023-01-01T06:57:20.306Z,12.93
2023-01-01T06:59:21.741Z,12.93
2023-01-01T07:01:35.871Z,12.91
2023-01-01T07:03:39.023Z,12.87
2023-01-01T07:05:41.218Z,12.86
2023-01-01T07:07:43.076Z,12.84
2023-01-01T07:09:50.804Z,12.82
2023-01-01T07:11:53.902Z,12.79
2023-01-01T07:13:58.596Z,12.76
2023-01-01T07:16:13.054Z,12.73
2023-01-01T07:18:15.340Z,12.71
2023-01-01T07:20:16.849Z,12.71
2023-01-01T07:22:18.386Z,12.71
2023-01-01T07:24:21.076Z,12.74
2023-01-01T07:26:27.302Z,12.74
2023-01-01T07:28:28.987Z,12.76
2023-01-01T07:30:30.619Z,12.78
2023-01-01T07:32:32.439Z,12.80
2023-01-01T07:34:34.110Z,12.84
2023-01-01T07:36:35.821Z,12.89
2023-01-01T07:38:37.518Z,12.93
2023-01-01T07:40:41.783Z,12.96
2023-01-01T07:42:44.383Z,12.97
2023-01-01T07:44:46.751Z,13.00
2023-01-01T07:46:48.487Z,13.06
2023-01-01T07:48:51.404Z,13.10
2023-01-01T07:51:04.150Z,13.13
2023-01-01T07:53:05.773Z,13.17
2023-01-01T07:55:11.594Z,13.25
2023-01-01T07:57:13.071Z,13.28
2023-01-01T07:59:20.291Z,13.33
2023-01-01T08:01:24.652Z,13.38
2023-01-01T08:03:29.408Z,13.51
2023-01-01T08:05:38.207Z,13.59
2023-01-01T08:07:39.904Z,13.66
2023-01-01T08:09:41.331Z,13.67
2023-01-01T08:11:43.164Z,13.67
2023-01-01T08:13:44.938Z,13.67
2023-01-01T08:15:46.457Z,13.68
2023-01-01T08:17:47.985Z,13.66
2023-01-01T08:19:50.999Z,13.73
2023-01-01T08:21:52.792Z,13.77
2023-01-01T08:23:55.159Z,13.82
2023-01-01T08:26:02.406Z,13.93
2023-01-01T08:28:06.874Z,14.00
2023-01-01T08:30:10.756Z,14.02
2023-01-01T08:32:13.107Z,14.00
2023-01-01T08:34:14.883Z,14.01
2023-01-01T08:36:20.823Z,13.95
2023-01-01T08:38:25.793Z,14.00
2023-01-01T08:40:27.534Z,14.05
2023-01-01T08:42:29.036Z,14.14
2023-01-01T08:44:32.755Z,14.14
2023-01-01T08:46:36.202Z,14.10
2023-01-01T08:48:37.815Z,14.13
2023-01-01T08:50:41.706Z,14.14
2023-01-01T08:52:43.165Z,14.22
2023-01-01T08:54:48.022Z,14.25
2023-01-01T08:56:49.547Z,14.28
2023-01-01T08:58:51.173Z,14.31
2023-01-01T09:00:54.128Z,14.37
2023-01-01T09:02:55.867Z,14.43
2023-01-01T09:04:57.581Z,14.44
2023-01-01T09:07:01.891Z,14.45
2023-01-01T09:09:03.474Z,14.50
2023-01-01T09:11:05.294Z,14.52
2023-01-01T09:13:06.956Z,14.51
2023-01-01T09:15:19.320Z,14.52
2023-01-01T09:17:20.884Z,14.54
2023-01-01T09:19:22.565Z,14.53
2023-01-01T09:21:25.548Z,14.54
2023-01-01T09:23:27.067Z,14.56
2023-01-01T09:25:28.812Z,14.62
2023-01-01T09:27:31.483Z,14.68
2023-01-01T09:29:35.978Z,14.73
2023-01-01T09:31:37.660Z,14.78
2023-01-01T09:33:39.576Z,14.81
2023-01-01T09:35:44.129Z,14.83
2023-01-01T09:37:46.183Z,14.87
2023-01-01T09:39:47.991Z,14.92
2023-01-01T09:42:18.911Z,14.98
2023-01-01T09:44:47.836Z,15.07
2023-01-01T09:46:49.731Z,15.06
2023-01-01T09:48:59.691Z,14.97
2023-01-01T09:51:04.893Z,14.93
2023-01-01T09:53:18.847Z,14.95
2023-01-01T09:55:38.835Z,14.98
2023-01-01T09:57:43.208Z,15.03
2023-01-01T09:59:45.015Z,15.09
2023-01-01T10:02:04.008Z,15.32
2023-01-01T10:04:25.886Z,15.42
2023-01-01T10:06:35.279Z,15.52
2023-01-01T10:08:57.292Z,15.55
2023-01-01T10:11:22.900Z,15.55
2023-01-01T10:13:32.416Z,15.60
2023-01-01T10:15:42.478Z,15.68
2023-01-01T10:17:50.277Z,15.72
2023-01-01T10:20:03.147Z,15.78
2023-01-01T10:22:12.759Z,15.84
2023-01-01T10:24:47.409Z,15.81
2023-01-01T10:26:50.811Z,15.79
2023-01-01T10:29:09.781Z,15.86
2023-01-01T10:31:25.652Z,15.83
2023-01-01T10:33:28.255Z,15.82
2023-01-01T10:35:42.592Z,15.85
2023-01-01T10:37:45.136Z,15.88
2023-01-01T10:39:47.866Z,15.92
2023-01-01T10:41:50.455Z,15.97
2023-01-01T10:43:52.150Z,15.99
2023-01-01T10:45:55.016Z,16.01
2023-01-01T10:48:19.215Z,16.03
2023-01-01T10:50:21.019Z,16.11
2023-01-01T10:52:34.400Z,16.15
2023-01-01T10:54:40.868Z,16.19
2023-01-01T10:56:43.428Z,16.26
2023-01-01T10:58:52.153Z,16.30
2023-01-01T11:01:01.816Z,16.32
2023-01-01T11:03:15.993Z,16.35
2023-01-01T11:05:22.365Z,16.42
2023-01-01T11:07:34.609Z,16.47
2023-01-01T11:09:38.556Z,16.52
2023-01-01T11:11:47.681Z,16.54
2023-01-01T11:13:54.101Z,16.57
2023-01-01T11:15:56.494Z,16.59
2023-01-01T11:18:14.195Z,16.61
2023-01-01T11:20:20.869Z,16.69
2023-01-01T11:22:36.677Z,16.75
2023-01-01T11:24:39.553Z,16.79
2023-01-01T11:26:41.135Z,16.85
2023-01-01T11:28:59.071Z,16.92
2023-01-01T11:31:11.099Z,16.95
2023-01-01T11:33:19.545Z,16.98
2023-01-01T11:35:24.664Z,17.03
2023-01-01T11:37:33.262Z,17.07
2023-01-01T11:39:39.829Z,17.13
2023-01-01T11:41:51.744Z,17.14
2023-01-01T11:43:53.970Z,17.22
2023-01-01T11:45:57.941Z,17.24
2023-01-01T11:48:03.039Z,17.27
2023-01-01T11:50:14.725Z,17.30
2023-01-01T11:52:35.741Z,17.34
2023-01-01T11:54:38.081Z,17.39
2023-01-01T11:56:40.204Z,17.46
2023-01-01T11:58:58.267Z,17.50
2023-01-01T12:01:05.114Z,17.56
2023-01-01T12:03:29.668Z,17.60
2023-01-01T12:06:03.381Z,17.64
2023-01-01T12:08:12.853Z,17.74
2023-01-01T12:10:27.789Z,17.77
2023-01-01T12:12:40.326Z,17.84
2023-01-01T12:14:59.280Z,17.88
2023-01-01T12:17:17.546Z,17.94
2023-01-01T12:19:34.975Z,18.00
2023-01-01T12:21:49.079Z,18.06
2023-01-01T12:23:57.057Z,18.11
2023-01-01T12:26:15.651Z,18.13
2023-01-01T12:28:41.227Z,18.18
2023-01-01T12:31:07.564Z,18.20
2023-01-01T12:33:58.938Z,18.26
2023-01-01T12:36:12.429Z,18.33
2023-01-01T12:38:35.640Z,18.39
2023-01-01T12:41:02.815Z,18.45
2023-01-01T12:43:34.566Z,18.46
2023-01-01T12:46:04.107Z,18.51
2023-01-01T12:48:44.352Z,18.52
2023-01-01T12:51:17.551Z,18.53
2023-01-01T12:53:31.384Z,18.54
2023-01-01T12:55:47.090Z,18.57
2023-01-01T12:58:11.521Z,18.62
2023-01-01T13:00:19.405Z,18.67
2023-01-01T13:02:25.185Z,18.72
2023-01-01T13:04:30.034Z,18.74
2023-01-01T13:06:41.854Z,18.73
2023-01-01T13:08:53.355Z,18.73
2023-01-01T13:10:59.306Z,18.79
2023-01-01T13:13:01.939Z,18.80
2023-01-01T13:15:38.925Z,18.78
2023-01-01T13:17:40.747Z,18.79
2023-01-01T13:19:42.533Z,18.80
2023-01-01T13:21:44.386Z,18.82
2023-01-01T13:23:47.624Z,18.85
2023-01-01T13:25:49.244Z,18.88
2023-01-01T13:28:00.626Z,18.94
2023-01-01T13:30:02.161Z,18.92
2023-01-01T13:32:07.594Z,18.93
2023-01-01T13:34:35.441Z,18.89
2023-01-01T13:36:41.010Z,18.90
2023-01-01T13:38:47.311Z,18.87
2023-01-01T13:40:50.874Z,18.92
2023-01-01T13:43:00.732Z,18.88
2023-01-01T13:48:20.093Z,18.88
2023-01-01T13:50:38.937Z,18.86
2023-01-01T13:53:20.456Z,18.84
2023-01-01T13:55:52.910Z,18.85
2023-01-01T13:58:35.154Z,18.85
2023-01-01T14:01:14.957Z,18.85
2023-01-01T14:03:21.800Z,18.87
2023-01-01T14:05:32.123Z,18.87
2023-01-01T14:07:55.380Z,18.85
2023-01-01T14:10:28.223Z,18.80
2023-01-01T14:12:29.925Z,18.83
2023-01-01T14:14:34.435Z,18.81
2023-01-01T14:16:36.265Z,18.80
2023-01-01T14:18:43.446Z,18.79
2023-01-01T14:21:00.226Z,18.81
2023-01-01T14:23:25.612Z,18.82
2023-01-01T14:25:29.559Z,18.87
2023-01-01T14:27:31.216Z,18.87
2023-01-01T14:29:35.762Z,18.86
2023-01-01T14:31:46.945Z,18.86
2023-01-01T14:33:48.951Z,18.86
2023-01-01T14:35:56.330Z,18.80
2023-01-01T14:38:32.473Z,18.74
2023-01-01T14:40:36.521Z,18.71
2023-01-01T14:42:41.343Z,18.69
2023-01-01T14:44:46.476Z,18.69
2023-01-01T14:46:54.768Z,18.70
2023-01-01T14:49:15.781Z,18.69
2023-01-01T14:51:24.059Z,18.69
2023-01-01T14:53:32.096Z,18.67
2023-01-01T14:58:52.315Z,18.59
2023-01-01T15:00:54.908Z,18.62
2023-01-01T15:03:05.982Z,18.62
2023-01-01T15:05:34.805Z,18.61
2023-01-01T15:07:36.887Z,18.63
2023-01-01T15:09:44.173Z,18.62
2023-01-01T15:11:49.451Z,18.59
2023-01-01T15:14:29.353Z,18.57
2023-01-01T15:16:40.368Z,18.59
2023-01-01T15:18:47.152Z,18.55
2023-01-01T15:20:56.105Z,18.53
2023-01-01T15:22:57.858Z,18.51
2023-01-01T15:25:00.566Z,18.48
2023-01-01T15:27:05.583Z,18.42
2023-01-01T15:29:10.557Z,18.38
2023-01-01T15:31:24.224Z,18.33
2023-01-01T15:33:29.738Z,18.32
2023-01-01T15:35:33.872Z,18.28
2023-01-01T15:37:52.488Z,18.24
2023-01-01T15:40:01.916Z,18.22
2023-01-01T15:42:25.459Z,18.20
2023-01-01T15:44:32.853Z,18.16
2023-01-01T15:46:34.639Z,18.16
2023-01-01T15:48:45.883Z,18.13
2023-01-01T15:50:50.504Z,18.09
2023-01-01T15:52:58.225Z,18.05
2023-01-01T15:54:59.933Z,17.99
2023-01-01T15:57:01.661Z,17.99
2023-01-01T15:59:17.456Z,17.99
2023-01-01T16:01:25.729Z,17.97
2023-01-01T16:03:30.294Z,17.95
2023-01-01T16:05:32.135Z,17.94
2023-01-01T16:07:33.730Z,17.89
2023-01-01T16:09:39.300Z,17.90
2023-01-01T16:11:41.040Z,17.87
2023-01-01T16:13:42.753Z,17.88
2023-01-01T16:15:57.442Z,17.86
2023-01-01T16:18:01.411Z,17.86
2023-01-01T16:20:03.408Z,17.86
2023-01-01T16:22:05.021Z,17.83
2023-01-01T16:24:06.755Z,17.81
2023-01-01T16:26:08.529Z,17.78
2023-01-01T16:28:16.229Z,17.76
2023-01-01T16:30:18.597Z,17.74
2023-01-01T16:32:20.405Z,17.73
2023-01-01T16:34:25.464Z,17.72
2023-01-01T16:36:28.994Z,17.69
2023-01-01T16:38:30.550Z,17.68
2023-01-01T16:40:37.687Z,17.67
2023-01-01T16:42:39.794Z,17.67
2023-01-01T16:44:41.974Z,17.66
2023-01-01T16:46:44.046Z,17.64
2023-01-01T16:48:46.013Z,17.61
2023-01-01T16:50:52.324Z,17.62
2023-01-01T16:52:54.074Z,17.65
2023-01-01T16:54:58.513Z,17.67
2023-01-01T16:57:02.133Z,17.67
2023-01-01T16:59:03.956Z,17.70
2023-01-01T17:01:06.413Z,17.63
2023-01-01T17:03:11.070Z,17.65
2023-01-01T17:05:17.504Z,17.65
2023-01-01T17:07:19.132Z,17.64
2023-01-01T17:09:20.895Z,17.68
2023-01-01T17:11:28.640Z,17.71
2023-01-01T17:13:31.728Z,17.67
2023-01-01T17:15:33.498Z,17.65
2023-01-01T17:17:37.865Z,17.66
2023-01-01T17:19:46.281Z,17.66
2023-01-01T17:21:51.788Z,17.66
2023-01-01T17:23:53.831Z,17.66
2023-01-01T17:26:05.529Z,17.66
2023-01-01T17:28:07.123Z,17.65
2023-01-01T17:30:09.276Z,17.64
2023-01-01T17:32:13.349Z,17.58
2023-01-01T17:34:18.041Z,17.54
2023-01-01T17:36:20.704Z,17.51
2023-01-01T17:38:22.251Z,17.48
2023-01-01T17:40:25.271Z,17.46
2023-01-01T17:42:27.149Z,17.44
2023-01-01T17:44:31.656Z,17.42
2023-01-01T17:46:36.854Z,17.39
2023-01-01T17:48:39.217Z,17.35
2023-01-01T17:50:41.037Z,17.32
2023-01-01T17:52:42.912Z,17.29
2023-01-01T17:54:44.440Z,17.25
2023-01-01T17:56:46.065Z,17.21
2023-01-01T17:58:49.376Z,17.17
2023-01-01T18:00:52.435Z,17.13
2023-01-01T18:02:54.101Z,17.09
2023-01-01T18:04:56.265Z,17.06
2023-01-01T18:07:02.532Z,17.03
2023-01-01T18:09:11.353Z,16.98
2023-01-01T18:11:15.769Z,16.93
2023-01-01T18:13:17.737Z,16.89
2023-01-01T18:15:28.351Z,16.85
2023-01-01T18:17:30.169Z,16.81
2023-01-01T18:19:32.395Z,16.77
2023-01-01T18:21:34.806Z,16.74
2023-01-01T18:23:40.027Z,16.71
2023-01-01T18:25:41.787Z,16.68
2023-01-01T18:27:43.939Z,16.65
2023-01-01T18:31:35.484Z,16.57
2023-01-01T18:33:37.639Z,16.53
2023-01-01T18:35:39.214Z,16.50
2023-01-01T18:37:41.004Z,16.49
2023-01-01T18:39:43.393Z,16.47
2023-01-01T18:44:28.527Z,16.42
2023-01-01T18:46:32.539Z,16.40
2023-01-01T18:48:36.324Z,16.41
2023-01-01T18:50:41.330Z,16.37
2023-01-01T18:52:42.878Z,16.36
2023-01-01T18:54:44.517Z,16.36
2023-01-01T18:56:47.559Z,16.37
2023-01-01T18:58:50.517Z,16.36
2023-01-01T19:00:53.872Z,16.34
2023-01-01T19:03:00.897Z,16.31
2023-01-01T19:05:17.556Z,16.29
2023-01-01T19:07:19.079Z,16.30
2023-01-01T19:09:23.487Z,16.27
2023-01-01T19:11:25.054Z,16.28
2023-01-01T19:13:33.789Z,16.27
2023-01-01T19:15:48.783Z,16.25
2023-01-01T19:17:53.494Z,16.24
2023-01-01T19:19:59.013Z,16.23
2023-01-01T19:22:24.870Z,16.21
2023-01-01T19:24:37.633Z,16.21
2023-01-01T19:26:42.260Z,16.20
2023-01-01T19:28:52.217Z,16.19
2023-01-01T19:30:53.996Z,16.18
2023-01-01T19:32:57.861Z,16.17
2023-01-01T19:35:05.146Z,16.17
2023-01-01T19:37:08.027Z,16.15
2023-01-01T19:39:29.775Z,16.10
2023-01-01T19:41:31.540Z,16.09
2023-01-01T19:43:38.077Z,16.08
2023-01-01T19:45:39.721Z,16.07
2023-01-01T19:47:45.075Z,16.06
2023-01-01T19:49:50.695Z,16.03
2023-01-01T19:51:57.212Z,16.01
2023-01-01T19:53:59.024Z,16.00
2023-01-01T19:56:00.699Z,15.97
2023-01-01T19:58:02.226Z,15.97
2023-01-01T20:00:04.707Z,15.92
2023-01-01T20:04:35.542Z,15.88
2023-01-01T20:06:37.836Z,15.85
2023-01-01T20:08:39.553Z,15.82
2023-01-01T20:10:41.125Z,15.82
2023-01-01T20:12:43.039Z,15.78
2023-01-01T20:14:44.951Z,15.76
2023-01-01T20:16:48.241Z,15.73
2023-01-01T20:18:50.076Z,15.70
2023-01-01T20:21:10.369Z,15.68
2023-01-01T20:23:12.110Z,15.64
2023-01-01T20:25:13.955Z,15.62
2023-01-01T20:27:24.396Z,15.59
2023-01-01T20:29:26.377Z,15.57
2023-01-01T20:31:28.484Z,15.53
2023-01-01T20:33:33.262Z,15.51
2023-01-01T20:35:56.227Z,15.48
2023-01-01T20:37:57.776Z,15.44
2023-01-01T20:39:59.624Z,15.41
2023-01-01T20:42:01.615Z,15.38
2023-01-01T20:44:03.251Z,15.37
2023-01-01T20:46:07.224Z,15.34
2023-01-01T20:48:10.015Z,15.31
2023-01-01T20:50:14.561Z,15.28
2023-01-01T20:52:16.148Z,15.26
2023-01-01T20:54:27.262Z,15.22
2023-01-01T20:56:31.136Z,15.19
2023-01-01T20:58:33.943Z,15.14
2023-01-01T21:00:35.576Z,15.18
2023-01-01T21:02:37.142Z,15.18
2023-01-01T21:04:40.832Z,15.15
2023-01-01T21:06:43.058Z,15.14
2023-01-01T21:08:46.452Z,15.10
2023-01-01T21:10:50.875Z,15.10
2023-01-01T21:12:52.393Z,15.08
2023-01-01T21:14:56.079Z,15.08
2023-01-01T21:16:57.860Z,15.07
2023-01-01T21:19:01.899Z,15.03
2023-01-01T21:21:14.901Z,15.04
2023-01-01T21:23:27.220Z,15.03
2023-01-01T21:25:53.114Z,15.02
2023-01-01T21:27:54.864Z,15.00
2023-01-01T21:29:57.891Z,15.00
2023-01-01T21:32:16.394Z,15.00
2023-01-01T21:34:40.634Z,14.99
2023-01-01T21:36:42.664Z,14.99
2023-01-01T21:38:46.325Z,14.99
2023-01-01T21:40:55.836Z,14.97
2023-01-01T21:43:39.972Z,14.96
2023-01-01T21:45:45.792Z,14.94
2023-01-01T21:47:47.598Z,14.95
2023-01-01T21:49:49.120Z,14.95
2023-01-01T21:51:56.756Z,14.94
2023-01-01T21:54:19.055Z,14.93
2023-01-01T21:56:28.825Z,14.95
2023-01-01T21:58:58.237Z,14.93
2023-01-01T22:01:00.535Z,14.93
2023-01-01T22:03:02.417Z,14.91
2023-01-01T22:05:32.043Z,14.91
2023-01-01T22:10:02.139Z,14.91
2023-01-01T22:12:25.105Z,14.92
2023-01-01T22:14:37.809Z,14.96
2023-01-01T22:16:39.533Z,14.95
2023-01-01T22:18:41.503Z,14.93
2023-01-01T22:20:45.103Z,14.95
2023-01-01T22:22:46.820Z,14.94
2023-01-01T22:25:06.325Z,14.97
2023-01-01T22:27:36.775Z,14.95
2023-01-01T22:29:38.625Z,14.95
2023-01-01T22:31:48.751Z,14.95
2023-01-01T22:33:53.263Z,14.94
2023-01-01T22:35:56.645Z,14.96
2023-01-01T22:38:01.356Z,14.94
2023-01-01T22:40:03.959Z,14.94
2023-01-01T22:42:06.288Z,14.95
2023-01-01T22:44:10.789Z,14.96
2023-01-01T22:46:28.740Z,14.96
2023-01-01T22:48:36.848Z,14.96
2023-01-01T22:50:38.825Z,14.96
2023-01-01T22:52:40.872Z,14.95
2023-01-01T22:54:43.808Z,14.94
2023-01-01T22:56:51.178Z,14.95
2023-01-01T22:58:57.317Z,14.95
2023-01-01T23:01:02.271Z,14.95
2023-01-01T23:03:04.393Z,14.96
2023-01-01T23:05:06.548Z,14.96
2023-01-01T23:07:14.200Z,15.00
2023-01-01T23:09:15.887Z,15.02
2023-01-01T23:11:21.129Z,15.03
2023-01-01T23:13:41.535Z,15.01
2023-01-01T23:16:01.682Z,15.01
2023-01-01T23:18:03.389Z,15.01
2023-01-01T23:20:06.453Z,15.01
2023-01-01T23:22:14.258Z,15.02
2023-01-01T23:24:24.209Z,15.03
2023-01-01T23:26:26.538Z,15.02
2023-01-01T23:28:31.060Z,15.02
2023-01-01T23:30:33.347Z,15.02
2023-01-01T23:32:36.256Z,15.00
2023-01-01T23:34:38.263Z,14.99
2023-01-01T23:36:41.238Z,15.00
2023-01-01T23:38:43.045Z,14.99
2023-01-01T23:40:44.584Z,14.98
2023-01-01T23:42:46.076Z,14.98
2023-01-01T23:44:47.873Z,14.97
2023-01-01T23:46:49.789Z,14.96
2023-01-01T23:48:53.541Z,14.94
2023-01-01T23:50:55.423Z,14.95
2023-01-01T23:52:57.334Z,14.94
2023-01-01T23:54:58.947Z,14.95
2023-01-01T23:57:00.582Z,14.97
2023-01-01T23:59:02.355Z,14.95
